Latest Weather Observations for Sheoaks

IDV60801

Issued at 11:32 pm EST Monday 26 June 2017 (issued every 30 minutes, with the page automatically refreshed every 10 minutes)

About weather observations | Map of weather stations | Latest weather observations for VIC | Other Formats
Station Details ID: 087168 Name: SHEOAKS Lat: -37.91 Lon: 144.13 Height: 236.7 m
Data from the previous 72 hours. | See also: Recent months at Sheoaks
Date/Time
EST
Temp
°C
App
Temp
°C
Dew
Point
°C
Rel
Hum
%
Delta-T
°C
Wind Press
QNH
hPa
Press
MSL
hPa
Rain since
9am
mm
Dir  Spd
km/h
Gust
km/h
Spd
kts
Gust
kts
26/11:30pm 7.2 5.7 6.6 96 0.3 N 4 4 2 2 1025.7 1026.0 0.0
26/11:00pm 7.2 5.7 6.6 96 0.3 N 4 4 2 2 1025.6 1025.9 0.0
26/10:30pm 7.1 5.5 6.4 95 0.3 NNW 4 6 2 3 1025.9 1026.2 0.0
26/10:00pm 7.3 5.8 6.6 95 0.3 N 4 4 2 2 1026.0 1026.3 0.0
26/09:30pm 7.3 5.8 6.6 95 0.3 N 4 6 2 3 1026.0 1026.3 0.0
26/09:00pm 7.5 6.0 6.8 95 0.3 NNW 4 6 2 3 1025.9 1026.2 0.0
26/08:30pm 7.4 5.8 6.5 94 0.4 NNW 4 6 2 3 1025.9 1026.2 0.0
26/08:00pm 7.5 6.0 6.6 94 0.4 N 4 6 2 3 1025.9 1026.2 0.0
26/07:30pm 7.8 6.3 6.7 93 0.5 N 4 6 2 3 1025.7 1026.0 0.0
26/07:00pm 7.8 5.7 6.6 92 0.6 NNW 7 11 4 6 1025.6 1025.9 0.0
26/06:30pm 7.8 6.3 6.7 93 0.5 NNW 4 6 2 3 1025.4 1025.7 0.0
26/06:00pm 7.5 5.9 6.3 92 0.6 N 4 6 2 3 1025.1 1025.4 0.0
26/05:30pm 8.1 6.1 6.4 89 0.8 NNW 6 6 3 3 1024.6 1025.0 0.0
26/05:00pm 9.4 8.6 6.7 83 1.3 CALM 0 0 0 0 1024.4 1024.8 0.0
26/04:30pm 9.9 8.4 7.0 82 1.4 NNW 4 6 2 3 1024.3 1024.7 0.0
26/04:00pm 9.8 8.5 6.2 78 1.7 W 2 4 1 2 1024.1 1024.5 0.0
26/03:30pm 10.1 8.9 8.2 88 0.9 W 4 6 2 3 1024.1 1024.5 0.0
26/03:00pm 9.3 8.1 8.1 92 0.6 SW 4 7 2 4 1024.0 1024.4 0.0
26/02:30pm 9.6 6.5 7.2 85 1.1 SW 13 20 7 11 1023.7 1024.1 0.0
26/02:00pm 10.0 7.7 5.8 75 1.9 WNW 7 13 4 7 1023.6 1024.0 0.0
26/01:30pm 10.5 8.4 6.6 77 1.9 W 7 11 4 6 1023.7 1024.1 0.0
26/01:00pm 10.1 7.2 6.3 77 1.8 W 11 19 6 10 1023.7 1024.1 0.0
26/12:30pm 10.2 7.8 7.1 81 1.5 W 9 13 5 7 1023.9 1024.3 0.0
26/12:00pm 9.8 7.3 6.5 80 1.5 W 9 15 5 8 1024.3 1024.7 0.0
26/11:30am 9.8 7.4 7.1 83 1.3 W 9 17 5 9 1024.3 1024.7 0.0
26/11:00am 9.2 7.2 7.3 88 0.9 WSW 7 13 4 7 1024.3 1024.7 0.0
26/10:30am 8.2 5.3 6.7 90 0.7 W 11 15 6 8 1024.2 1024.6 0.0
26/10:00am 8.4 6.1 7.3 93 0.5 W 9 15 5 8 1023.9 1024.3 0.0
26/09:30am 7.8 4.9 6.7 93 0.5 W 11 17 6 9 1023.5 1023.9 0.0
26/09:00am 7.6 5.1 6.7 94 0.4 WNW 9 13 5 7 1023.1 1023.5 2.2
26/08:30am 7.0 4.1 6.3 95 0.3 WNW 11 17 6 9 1022.6 1022.9 2.2
26/08:00am 6.2 3.4 5.3 94 0.4 WNW 9 17 5 9 1022.2 1022.5 2.2
26/07:30am 5.3 2.7 4.1 92 0.5 NW 7 11 4 6 1021.9 1022.2 2.2
26/07:00am 6.7 3.6 5.5 92 0.5 WNW 11 17 6 9 1021.5 1021.8 2.2
26/06:30am 7.1 3.7 6.0 93 0.5 W 13 19 7 10 1021.1 1021.4 2.2
26/06:00am 6.8 3.8 5.9 94 0.4 WNW 11 15 6 8 1020.9 1021.2 2.2
26/05:30am 6.6 3.9 5.7 94 0.4 NW 9 13 5 7 1020.5 1020.8 2.2
26/05:00am 6.8 3.8 5.9 94 0.4 WNW 11 17 6 9 1020.2 1020.6 2.2
26/04:30am 6.3 3.5 5.1 92 0.5 WNW 9 17 5 9 1020.0 1020.4 2.2
26/04:00am 7.2 4.6 6.0 92 0.5 W 9 13 5 7 1019.9 1020.3 2.2
26/03:30am 7.2 4.5 5.8 91 0.6 WNW 9 13 5 7 1019.7 1020.1 2.2
26/03:00am 7.6 4.6 6.1 90 0.7 WNW 11 15 6 8 1019.8 1020.2 2.2
26/02:30am 8.2 5.7 6.7 90 0.7 WNW 9 17 5 9 1019.5 1019.9 2.2
26/02:00am 8.4 5.6 6.9 90 0.7 WNW 11 17 6 9 1019.1 1019.4 2.2
26/01:30am 8.4 5.6 7.0 91 0.7 WNW 11 17 6 9 1018.9 1019.2 2.2
26/01:00am 8.5 5.7 7.0 90 0.7 WNW 11 17 6 9 1018.8 1019.1 2.2
26/12:30am 8.7 6.0 7.3 91 0.7 WNW 11 19 6 10 1018.7 1019.0 2.2
26/12:00am 8.7 6.0 7.3 91 0.7 NW 11 17 6 9 1018.6 1018.9 2.2
 
Date/Time
EST
Temp
°C
App
Temp
°C
Dew
Point
°C
Rel
Hum
%
Delta-T
°C
Wind Press
QNH
hPa
Press
MSL
hPa
Rain since
9am
mm
Dir  Spd
km/h
Gust
km/h
Spd
kts
Gust
kts
25/11:30pm 8.8 6.5 7.6 92 0.6 WNW 9 15 5 8 1018.6 1018.9 2.2
25/11:00pm 8.6 6.4 7.7 94 0.4 NW 9 15 5 8 1018.4 1018.7 2.2
25/10:30pm 8.6 6.4 7.7 94 0.4 NW 9 13 5 7 1018.3 1018.6 2.2
25/10:00pm 8.7 6.1 7.9 95 0.4 WNW 11 17 6 9 1018.2 1018.5 2.2
25/09:30pm 8.6 5.6 7.8 95 0.4 WNW 13 20 7 11 1018.1 1018.4 2.2
25/09:00pm 8.8 5.5 8.0 95 0.4 WNW 15 24 8 13 1017.9 1018.2 2.2
25/08:30pm 8.8 5.5 8.0 95 0.4 WNW 15 20 8 11 1017.6 1017.9 2.0
25/08:00pm 8.8 5.5 7.9 94 0.4 WNW 15 22 8 12 1017.5 1017.8 1.4
25/07:30pm 8.9 5.5 7.7 92 0.6 WNW 15 24 8 13 1017.0 1017.3 0.4
25/07:00pm 9.1 5.6 7.2 88 0.9 WNW 15 26 8 14 1016.5 1016.8 0.0
25/06:30pm 9.7 5.3 6.6 81 1.5 WNW 19 43 10 23 1016.1 1016.4 0.0
25/06:00pm 9.8 5.7 6.2 78 1.7 WNW 17 30 9 16 1015.7 1016.1 0.0
25/05:30pm 10.6 6.4 5.6 71 2.3 NW 17 28 9 15 1015.2 1015.5 0.0
25/05:00pm 10.7 6.8 5.5 70 2.4 NW 15 24 8 13 1015.0 1015.3 0.0
25/04:30pm 10.8 6.5 5.3 69 2.5 WNW 17 22 9 12 1014.9 1015.2 0.0
25/04:00pm 11.1 6.2 5.0 66 2.8 WNW 20 33 11 18 1014.5 1014.8 0.0
25/03:30pm 11.4 6.5 5.1 65 2.9 WNW 20 35 11 19 1014.6 1014.9 0.0
25/03:00pm 11.4 6.5 5.1 65 2.9 WNW 20 32 11 17 1014.2 1014.5 0.0
25/02:30pm 10.9 6.6 5.4 69 2.6 NW 17 32 9 17 1014.1 1014.4 0.0
25/02:00pm 10.8 5.6 5.3 69 2.5 NW 22 37 12 20 1014.2 1014.5 0.0
25/01:30pm 10.8 5.2 5.3 69 2.5 NW 24 39 13 21 1014.4 1014.7 0.0
25/01:00pm 11.0 4.6 5.1 67 2.7 WNW 28 46 15 25 1014.7 1015.0 0.0
25/12:30pm 10.7 5.9 5.5 70 2.4 WNW 20 37 11 20 1014.9 1015.2 0.0
25/12:00pm 10.3 5.5 5.7 73 2.1 NW 20 39 11 21 1015.0 1015.3 0.0
25/11:30am 10.6 4.7 5.8 72 2.2 NW 26 39 14 21 1015.5 1015.8 0.0
25/11:00am 10.2 5.1 5.8 74 2.0 NW 22 37 12 20 1016.0 1016.3 0.0
25/10:30am 9.6 4.4 5.6 76 1.8 NW 22 39 12 21 1016.1 1016.4 0.0
25/10:00am 9.4 4.2 5.4 76 1.8 NW 22 35 12 19 1016.1 1016.4 0.0
25/09:30am 8.9 3.6 5.1 77 1.7 NW 22 32 12 17 1016.0 1016.3 0.0
25/09:00am 8.2 3.8 4.6 78 1.6 NW 17 30 9 16 1016.0 1016.3 0.2
25/08:30am 7.8 3.3 4.4 79 1.5 NW 17 28 9 15 1016.0 1016.3 0.2
25/08:00am 7.4 3.3 4.2 80 1.4 NW 15 24 8 13 1015.8 1016.2 0.2
25/07:30am 7.3 3.2 4.1 80 1.4 NW 15 24 8 13 1015.7 1016.1 0.2
25/07:00am 7.1 2.9 3.7 79 1.5 NW 15 24 8 13 1015.5 1015.8 0.2
25/06:30am 6.9 2.6 3.3 78 1.5 NNW 15 22 8 12 1015.4 1015.7 0.2
25/06:00am 7.0 3.1 3.6 79 1.5 NNW 13 19 7 10 1015.2 1015.5 0.2
25/05:30am 7.3 3.4 3.5 77 1.6 NW 13 22 7 12 1015.2 1015.5 0.2
25/05:00am 7.3 3.0 3.5 77 1.6 NW 15 32 8 17 1015.4 1015.7 0.2
25/04:30am 7.3 3.1 3.7 78 1.6 NW 15 24 8 13 1015.3 1015.6 0.2
25/04:00am 7.3 3.1 3.7 78 1.6 NW 15 24 8 13 1015.6 1015.9 0.2
25/03:30am 6.8 2.9 3.6 80 1.4 NW 13 22 7 12 1015.6 1015.9 0.2
25/03:00am 6.0 2.0 2.8 80 1.3 NW 13 19 7 10 1015.7 1016.1 0.2
25/02:30am 6.2 2.1 2.5 77 1.5 NW 13 20 7 11 1015.8 1016.2 0.2
25/02:00am 6.2 2.1 2.3 76 1.6 NW 13 20 7 11 1015.8 1016.2 0.2
25/01:30am 6.1 2.0 2.0 75 1.7 NW 13 20 7 11 1016.0 1016.3 0.2
25/01:00am 6.3 2.2 2.2 75 1.7 NW 13 19 7 10 1016.2 1016.5 0.2
25/12:30am 6.9 3.2 2.4 73 1.9 NW 11 17 6 9 1016.3 1016.6 0.2
25/12:00am 7.4 3.7 2.5 71 2.1 NW 11 17 6 9 1016.4 1016.7 0.2
 
Date/Time
EST
Temp
°C
App
Temp
°C
Dew
Point
°C
Rel
Hum
%
Delta-T
°C
Wind Press
QNH
hPa
Press
MSL
hPa
Rain since
9am
mm
Dir  Spd
km/h
Gust
km/h
Spd
kts
Gust
kts
24/11:30pm 7.5 4.3 2.8 72 2.0 NW 9 15 5 8 1016.5 1016.8 0.2
24/11:00pm 7.6 3.2 2.9 72 2.0 NW 15 22 8 12 1016.9 1017.2 0.2
24/10:30pm 7.1 4.3 3.0 75 1.7 NW 7 11 4 6 1017.0 1017.3 0.2
24/10:00pm 7.0 3.7 2.5 73 1.9 NNW 9 15 5 8 1017.3 1017.6 0.2
24/09:30pm 7.1 3.8 2.6 73 1.9 NNW 9 15 5 8 1017.4 1017.7 0.2
24/09:00pm 7.0 3.7 2.3 72 2.0 NW 9 15 5 8 1017.4 1017.7 0.2
24/08:30pm 7.1 4.1 1.8 69 2.2 NW 7 11 4 6 1017.5 1017.8 0.2
24/08:00pm 7.6 4.3 2.3 69 2.2 NW 9 13 5 7 1017.7 1018.0 0.2
24/07:30pm 7.6 4.3 2.5 70 2.2 NW 9 13 5 7 1017.5 1017.8 0.2
24/07:00pm 7.8 5.0 2.9 71 2.1 NW 7 11 4 6 1017.6 1017.9 0.2
24/06:30pm 8.0 5.1 2.7 69 2.3 NW 7 13 4 7 1017.5 1017.8 0.2
24/06:00pm 7.9 5.3 3.2 72 2.0 NW 6 11 3 6 1017.5 1017.8 0.2
24/05:30pm 8.0 5.2 3.3 72 2.0 NW 7 11 4 6 1017.5 1017.8 0.2
24/05:00pm 8.2 5.0 3.3 71 2.1 WNW 9 15 5 8 1017.4 1017.7 0.2
24/04:30pm 8.3 5.7 4.1 75 1.9 W 7 13 4 7 1017.3 1017.6 0.2
24/04:00pm 8.7 5.1 3.1 68 2.4 W 11 19 6 10 1017.2 1017.5 0.2
24/03:30pm 8.7 5.5 3.1 68 2.4 WNW 9 13 5 7 1017.1 1017.4 0.2
24/03:00pm 9.0 5.5 3.6 69 2.4 W 11 20 6 11 1017.1 1017.4 0.2
24/02:30pm 9.3 5.3 3.1 65 2.7 WNW 13 20 7 11 1017.0 1017.3 0.2
24/02:00pm 8.9 4.4 2.3 63 2.8 WSW 15 24 8 13 1017.3 1017.6 0.2
24/01:30pm 9.3 5.8 3.3 66 2.6 WSW 11 17 6 9 1017.4 1017.7 0.2
24/01:00pm 9.5 5.9 2.8 63 2.9 WSW 11 19 6 10 1017.7 1018.0 0.0
24/12:30pm 8.6 5.0 3.0 68 2.4 WSW 11 19 6 10 1017.9 1018.2 0.0
24/12:00pm 9.8 5.9 3.5 65 2.8 W 13 22 7 12 1018.1 1018.4 0.0
24/11:30am 9.4 5.6 3.8 68 2.5 W 13 20 7 11 1018.4 1018.7 0.0
24/11:00am 8.5 4.3 3.9 73 2.0 W 15 24 8 13 1018.6 1018.9 0.0
24/10:30am 8.4 4.2 3.8 73 2.0 W 15 24 8 13 1018.7 1019.0 0.0
24/10:00am 8.3 4.9 3.9 74 1.9 WNW 11 17 6 9 1018.7 1019.0 0.0
24/09:30am 7.5 4.5 4.1 79 1.5 WNW 9 15 5 8 1018.6 1018.9 0.0
24/09:00am 6.5 3.6 4.5 87 0.9 WNW 9 13 5 7 1018.5 1018.8 1.4
24/08:30am 5.8 3.2 4.1 89 0.7 WNW 7 11 4 6 1018.2 1018.5 1.4
24/08:00am 5.3 1.8 3.6 89 0.7 WNW 11 15 6 8 1017.9 1018.2 1.4
24/07:30am 5.5 2.1 3.8 89 0.7 WNW 11 17 6 9 1017.7 1018.0 1.4
24/07:00am 5.6 2.6 3.9 89 0.7 WNW 9 15 5 8 1017.5 1017.8 1.4
24/06:30am 5.9 3.0 4.4 90 0.7 WNW 9 13 5 7 1016.9 1017.2 1.4
24/06:00am 6.6 3.8 5.1 90 0.7 WNW 9 15 5 8 1016.7 1017.0 1.4
24/05:30am 7.0 4.3 5.5 90 0.7 W 9 15 5 8 1016.7 1017.0 1.4
24/05:00am 7.3 4.6 5.8 90 0.7 W 9 15 5 8 1016.3 1016.6 1.4
24/04:30am 7.2 4.6 6.0 92 0.5 WNW 9 13 5 7 1016.1 1016.4 1.4
24/04:00am 7.1 4.5 5.9 92 0.5 WNW 9 13 5 7 1016.1 1016.4 1.4
24/03:30am 7.2 4.6 6.0 92 0.5 WNW 9 11 5 6 1016.0 1016.3 1.4
24/03:00am 7.4 4.8 6.3 93 0.5 W 9 11 5 6 1016.1 1016.4 1.4
24/02:30am 7.4 4.5 6.3 93 0.5 W 11 15 6 8 1016.2 1016.5 1.4
24/02:00am 7.5 4.6 6.4 93 0.5 W 11 19 6 10 1015.7 1016.1 1.4
24/01:30am 7.8 4.9 6.6 92 0.6 WSW 11 19 6 10 1015.6 1015.9 1.4
24/01:00am 8.3 5.5 7.1 92 0.6 WSW 11 20 6 11 1015.4 1015.7 1.4
24/12:30am 8.9 5.9 7.7 92 0.6 WSW 13 26 7 14 1015.1 1015.4 1.4
24/12:00am 9.3 6.0 8.1 92 0.6 W 15 24 8 13 1014.9 1015.2 1.4

Other Formats:

Comma delimited format used in spreadsheet applications
http://www.bom.gov.au/fwo/IDV60801/IDV60801.94863.axf

JavaScript Object Notation format (JSON) in row-major order
http://www.bom.gov.au/fwo/IDV60801/IDV60801.94863.json